Time;durP1;ratioP1;P1;durP2;ratioP2;P2;SDS_P1;SDS_P2;PMS_P1;PMS_P2;Temp;Humidity;BMP_temperature;BMP_pressure;BME280_temperature;BME280_humidity;BME280_pressure;Samples;Min_cycle;Max_cycle;Signal;HPM_P1;HPM_P2
2023/11/01 00:00:26;;;;;;;0.17;0.17;;;12.20;99.90;;;;;;6256327;22;20022;-92
2023/11/01 00:02:53;;;;;;;0.10;0.10;;;12.30;99.90;;;;;;6222803;22;20027;-90
2023/11/01 00:05:21;;;;;;;0.63;0.22;;;12.20;99.90;;;;;;6272971;22;20024;-88
2023/11/01 00:07:49;;;;;;;0.10;0.10;;;12.30;99.90;;;;;;6225464;22;20024;-88
2023/11/01 00:10:16;;;;;;;0.20;0.20;;;12.30;99.90;;;;;;6221807;22;20058;-89
2023/11/01 00:12:45;;;;;;;0.17;0.10;;;12.30;1.00;;;;;;6242505;22;20026;-81
2023/11/01 00:15:13;;;;;;;0.20;0.10;;;12.30;1.00;;;;;;6264000;22;20189;-82
2023/11/01 00:17:40;;;;;;;0.30;0.10;;;12.30;58.90;;;;;;6239982;22;20019;-81
2023/11/01 00:20:08;;;;;;;0.20;0.20;;;12.30;62.90;;;;;;6240056;22;20020;-83
2023/11/01 00:22:35;;;;;;;0.20;0.20;;;12.30;41.40;;;;;;6214725;22;20020;-82
2023/11/01 00:25:03;;;;;;;0.10;0.10;;;12.30;64.60;;;;;;6239810;22;20536;-82
2023/11/01 00:27:32;;;;;;;0.10;0.10;;;12.30;93.30;;;;;;6241699;22;20033;-88
2023/11/01 00:30:03;;;;;;;0.10;0.10;;;12.40;55.10;;;;;;6247522;22;20035;-83
2023/11/01 00:32:30;;;;;;;0.17;0.13;;;12.30;38.50;;;;;;6249046;22;20059;-89
2023/11/01 00:34:57;;;;;;;0.20;0.10;;;12.40;35.60;;;;;;6274239;22;20038;-88
2023/11/01 00:37:24;;;;;;;0.10;0.10;;;12.40;38.80;;;;;;6248800;22;20019;-88
2023/11/01 00:39:51;;;;;;;0.35;0.15;;;12.40;49.60;;;;;;6222500;22;20023;-88
2023/11/01 00:42:18;;;;;;;0.10;0.10;;;12.40;58.80;;;;;;6272799;22;20492;-81
2023/11/01 00:44:46;;;;;;;0.10;0.10;;;12.40;94.00;;;;;;6238796;22;20020;-81
2023/11/01 00:47:13;;;;;;;0.10;0.10;;;12.40;74.70;;;;;;6239171;22;20034;-81
2023/11/01 00:49:40;;;;;;;0.20;0.10;;;12.40;87.50;;;;;;6239039;22;20572;-82
2023/11/01 00:52:07;;;;;;;0.15;0.15;;;12.40;93.00;;;;;;6262305;22;20027;-81
2023/11/01 00:54:34;;;;;;;0.13;0.13;;;12.40;95.20;;;;;;6213579;22;20082;-83
2023/11/01 00:57:01;;;;;;;0.10;0.10;;;12.40;99.90;;;;;;6212725;22;20030;-87
2023/11/01 00:59:28;;;;;;;0.10;0.10;;;12.50;60.50;;;;;;6223741;22;20271;-88
2023/11/01 01:01:55;;;;;;;0.47;0.20;;;12.50;60.00;;;;;;6221615;22;20015;-81
2023/11/01 01:04:22;;;;;;;0.10;0.10;;;12.50;39.00;;;;;;6271404;22;20488;-86
2023/11/01 01:06:50;;;;;;;0.10;0.10;;;12.50;47.40;;;;;;6274742;22;20054;-84
2023/11/01 01:09:18;;;;;;;0.15;0.15;;;12.50;86.80;;;;;;6248280;22;20020;-84
2023/11/01 01:11:44;;;;;;;0.20;0.20;;;12.50;89.90;;;;;;6224820;22;20063;-88
2023/11/01 01:14:11;;;;;;;0.10;0.10;;;12.50;91.10;;;;;;6232662;22;20027;-85
2023/11/01 01:16:38;;;;;;;0.10;0.10;;;12.50;66.90;;;;;;6232466;22;20110;-86
2023/11/01 01:19:05;;;;;;;1.30;0.17;;;12.50;46.70;;;;;;6277808;22;20322;-88
2023/11/01 01:21:40;;;;;;;0.10;0.10;;;12.60;21.00;;;;;;6221729;22;20023;-83
2023/11/01 01:24:07;;;;;;;0.08;0.08;;;12.60;2.70;;;;;;6271844;22;20019;-83
2023/11/01 01:26:34;;;;;;;0.10;0.10;;;12.60;1.00;;;;;;6246253;22;20031;-90
2023/11/01 01:29:01;;;;;;;0.20;0.20;;;12.60;1.00;;;;;;6246159;22;20518;-86
2023/11/01 01:31:28;;;;;;;0.35;0.20;;;12.60;1.00;;;;;;6241768;22;20023;-90
2023/11/01 01:33:55;;;;;;;0.30;0.30;;;12.60;54.80;;;;;;6222121;22;20026;-82
2023/11/01 01:36:23;;;;;;;0.20;0.20;;;12.60;62.30;;;;;;6282700;22;20026;-81
2023/11/01 01:38:50;;;;;;;0.20;0.20;;;12.60;99.90;;;;;;6277050;22;20015;-83
2023/11/01 01:41:17;;;;;;;0.77;0.32;;;12.70;99.90;;;;;;6243963;22;20392;-86
2023/11/01 01:43:44;;;;;;;0.57;0.35;;;12.70;99.90;;;;;;6217767;22;20051;-89
2023/11/01 01:46:15;;;;;;;0.30;0.30;;;12.80;99.90;;;;;;6270080;22;20016;-87
2023/11/01 01:48:43;;;;;;;0.63;0.43;;;12.80;99.90;;;;;;6244300;22;20022;-90
2023/11/01 01:51:11;;;;;;;0.60;0.40;;;12.90;99.90;;;;;;6243647;22;20058;-89
2023/11/01 01:53:40;;;;;;;1.02;0.40;;;12.90;99.90;;;;;;6242712;22;20023;-87
2023/11/01 01:56:07;;;;;;;0.20;0.20;;;12.90;99.90;;;;;;6245317;22;20020;-89
2023/11/01 01:58:36;;;;;;;0.40;0.30;;;12.90;99.90;;;;;;6244433;22;20024;-83
2023/11/01 02:01:04;;;;;;;0.35;0.35;;;13.00;99.90;;;;;;6244911;22;20054;-89
2023/11/01 02:03:31;;;;;;;0.50;0.20;;;13.00;99.90;;;;;;6240963;22;20024;-88
2023/11/01 02:05:58;;;;;;;0.65;0.50;;;13.10;99.90;;;;;;6188768;23;20655;-87
2023/11/01 02:08:25;;;;;;;1.27;0.40;;;13.10;99.90;;;;;;6164812;23;20051;-88
2023/11/01 02:10:52;;;;;;;0.40;0.40;;;13.10;99.90;;;;;;6212075;23;20127;-88
2023/11/01 02:13:19;;;;;;;1.88;0.57;;;13.10;99.90;;;;;;6161332;23;20028;-82
2023/11/01 02:15:47;;;;;;;2.55;0.50;;;13.20;99.90;;;;;;6164120;23;20024;-88
2023/11/01 02:18:14;;;;;;;1.25;0.43;;;13.20;99.90;;;;;;6163819;23;20027;-91
2023/11/01 02:20:44;;;;;;;2.00;0.55;;;13.20;99.90;;;;;;6163714;23;20102;-90
2023/11/01 02:23:12;;;;;;;0.68;0.32;;;13.30;99.90;;;;;;6187480;23;20024;-90
2023/11/01 02:25:40;;;;;;;0.90;0.47;;;13.30;99.90;;;;;;6186671;23;20020;-88
2023/11/01 02:28:10;;;;;;;1.02;0.52;;;13.30;99.90;;;;;;6187014;23;20480;-89
2023/11/01 06:05:22;;;;;;;1.98;0.73;;;13.50;99.90;;;;;;6226150;22;20569;-78
2023/11/01 06:07:50;;;;;;;2.20;1.08;;;13.60;99.90;;;;;;6155503;23;20020;-77
2023/11/01 06:10:18;;;;;;;1.90;1.13;;;13.60;99.90;;;;;;6178716;23;20139;-75
2023/11/01 06:12:46;;;;;;;3.95;1.83;;;13.60;99.90;;;;;;6154200;23;20024;-79
2023/11/01 06:15:15;;;;;;;2.22;1.10;;;13.60;24.80;;;;;;6179115;23;20387;-77
2023/11/01 06:17:42;;;;;;;1.23;0.65;;;13.60;1.00;;;;;;6206587;23;20055;-78
2023/11/01 06:20:10;;;;;;;1.77;0.77;;;13.60;1.00;;;;;;6236391;23;20023;-78
2023/11/01 06:22:37;;;;;;;2.55;1.17;;;13.70;4.00;;;;;;6234822;23;20024;-79
2023/11/01 06:25:04;;;;;;;2.00;0.82;;;13.70;1.00;;;;;;6204899;23;20028;-80
2023/11/01 06:27:31;;;;;;;2.28;0.90;;;13.70;1.00;;;;;;6181007;23;20083;-81
2023/11/01 06:29:59;;;;;;;1.35;0.60;;;13.70;1.00;;;;;;6205755;23;20048;-77
2023/11/01 06:32:26;;;;;;;3.00;0.63;;;13.70;1.00;;;;;;6231603;23;20101;-79
2023/11/01 06:34:53;;;;;;;2.22;0.70;;;13.70;99.90;;;;;;6182638;23;20369;-79
2023/11/01 06:37:20;;;;;;;1.38;0.70;;;13.80;99.90;;;;;;6180420;23;20070;-78
2023/11/01 06:39:47;;;;;;;1.83;0.77;;;13.80;12.70;;;;;;6204453;23;20024;-79
2023/11/01 06:42:14;;;;;;;1.75;1.00;;;13.80;99.90;;;;;;6205805;23;20047;-80
2023/11/01 06:44:41;;;;;;;1.88;0.85;;;13.70;99.90;;;;;;6184196;23;20028;-80
2023/11/01 06:47:09;;;;;;;3.30;0.93;;;13.70;99.90;;;;;;6182912;23;20111;-79
2023/11/01 06:49:39;;;;;;;2.05;0.90;;;13.70;1.00;;;;;;6210298;23;20054;-79
2023/11/01 06:52:08;;;;;;;1.83;0.70;;;13.70;99.90;;;;;;6184477;23;20515;-78
2023/11/01 06:54:38;;;;;;;2.90;0.75;;;13.70;41.20;;;;;;6212457;23;20024;-79
2023/11/01 06:57:10;;;;;;;1.33;0.63;;;13.70;99.90;;;;;;6214349;23;20182;-79
2023/11/01 06:59:38;;;;;;;2.67;0.80;;;13.70;1.00;;;;;;6189761;23;20409;-84
2023/11/01 07:02:07;;;;;;;1.52;1.10;;;13.70;1.00;;;;;;6212149;23;20031;-80
2023/11/01 07:04:34;;;;;;;1.20;0.60;;;13.70;20.30;;;;;;6212021;23;20028;-83
2023/11/01 07:07:01;;;;;;;1.95;0.50;;;13.60;99.90;;;;;;6157096;23;20464;-82
2023/11/01 07:09:28;;;;;;;2.40;0.60;;;13.60;99.90;;;;;;6158399;23;20043;-86
2023/11/01 07:11:55;;;;;;;1.92;0.68;;;13.60;18.80;;;;;;6184969;23;20024;-83
2023/11/01 07:14:22;;;;;;;1.33;0.68;;;13.70;99.90;;;;;;6160185;23;20457;-85
2023/11/01 07:16:49;;;;;;;1.80;0.65;;;13.70;5.00;;;;;;6162213;23;20287;-86
2023/11/01 07:19:16;;;;;;;1.30;0.82;;;13.60;76.10;;;;;;6164446;23;20092;-88
2023/11/01 07:21:46;;;;;;;1.75;0.70;;;13.70;99.90;;;;;;6187194;23;20024;-84
2023/11/01 07:24:14;;;;;;;0.80;0.35;;;13.60;89.20;;;;;;6184564;23;20024;-85
2023/11/01 07:26:41;;;;;;;0.88;0.60;;;13.60;1.00;;;;;;6212251;23;20039;-85
2023/11/01 07:29:09;;;;;;;0.77;0.45;;;13.60;99.90;;;;;;6187243;23;20021;-88
2023/11/01 07:31:36;;;;;;;1.25;0.55;;;13.60;86.80;;;;;;6187303;23;20035;-82
2023/11/01 07:34:06;;;;;;;1.58;0.60;;;13.60;99.90;;;;;;6189036;23;20024;-87
2023/11/01 07:36:33;;;;;;;2.05;0.70;;;13.50;99.90;;;;;;6214134;23;20028;-89
2023/11/01 07:39:00;;;;;;;1.67;0.70;;;13.40;99.90;;;;;;6166053;23;20024;-85
2023/11/01 07:41:27;;;;;;;2.05;0.80;;;13.40;99.90;;;;;;6189919;23;20079;-84
2023/11/01 07:43:54;;;;;;;0.90;0.57;;;13.40;99.90;;;;;;6164436;23;20031;-85
2023/11/01 07:46:21;;;;;;;2.58;0.60;;;13.30;1.00;;;;;;6134604;23;20028;-85
2023/11/01 07:48:48;;;;;;;2.00;0.40;;;13.30;1.00;;;;;;6182682;23;20035;-79
2023/11/01 07:51:15;;;;;;;1.33;0.60;;;13.20;99.90;;;;;;6209444;23;20025;-83
2023/11/01 07:53:42;;;;;;;0.60;0.50;;;13.10;99.90;;;;;;6208354;23;20024;-83
2023/11/01 07:56:10;;;;;;;0.68;0.30;;;13.10;1.00;;;;;;6184014;23;20025;-84
2023/11/01 07:58:38;;;;;;;1.20;0.57;;;13.10;99.90;;;;;;6160081;23;20569;-81
2023/11/01 08:01:06;;;;;;;2.10;0.63;;;13.10;99.90;;;;;;6181772;23;20020;-81
2023/11/01 08:03:35;;;;;;;0.88;0.50;;;13.10;1.00;;;;;;6208628;23;20021;-81
2023/11/01 08:06:03;;;;;;;1.30;0.47;;;13.00;1.00;;;;;;6157184;23;20025;-79
2023/11/01 08:08:30;;;;;;;0.77;0.50;;;13.00;99.90;;;;;;6181638;23;20016;-83
2023/11/01 08:10:57;;;;;;;1.42;0.52;;;13.00;1.00;;;;;;6183405;23;20024;-87
2023/11/01 08:13:24;;;;;;;1.58;0.82;;;13.00;1.00;;;;;;6159587;23;20024;-82
2023/11/01 08:15:52;;;;;;;0.57;0.40;;;13.00;99.90;;;;;;6182431;23;20021;-84
2023/11/01 08:18:19;;;;;;;0.90;0.40;;;13.10;99.90;;;;;;6208886;23;20029;-84
2023/11/01 08:20:46;;;;;;;0.47;0.40;;;13.10;99.90;;;;;;6211820;23;20358;-83
2023/11/01 08:23:13;;;;;;;1.23;0.50;;;13.10;99.90;;;;;;6183149;23;20021;-82
2023/11/01 08:25:40;;;;;;;1.40;0.50;;;13.10;1.00;;;;;;6205929;23;20624;-81
2023/11/01 08:28:07;;;;;;;0.60;0.40;;;13.00;1.00;;;;;;6177404;23;20017;-80
2023/11/01 08:30:34;;;;;;;0.60;0.30;;;13.10;1.00;;;;;;6183474;23;20047;-81
2023/11/01 08:33:01;;;;;;;0.93;0.43;;;13.00;1.00;;;;;;6157985;23;20023;-80
2023/11/01 08:35:30;;;;;;;0.73;0.30;;;13.00;1.00;;;;;;6183817;23;20103;-83
2023/11/01 08:37:57;;;;;;;0.55;0.30;;;13.00;99.90;;;;;;6182638;23;20024;-81
2023/11/01 08:40:25;;;;;;;0.20;0.20;;;13.00;1.00;;;;;;6183093;23;20025;-80
2023/11/01 08:42:52;;;;;;;0.20;0.20;;;13.00;74.60;;;;;;6154383;23;20116;-84
2023/11/01 08:45:20;;;;;;;0.45;0.20;;;12.90;94.10;;;;;;6153825;23;20025;-81
2023/11/01 08:47:47;;;;;;;0.57;0.30;;;12.90;99.90;;;;;;6179998;23;20017;-83
2023/11/01 08:50:16;;;;;;;0.35;0.20;;;12.90;1.00;;;;;;6181559;23;20028;-83
2023/11/01 08:52:43;;;;;;;0.30;0.30;;;12.80;99.90;;;;;;6180882;23;20056;-81
2023/11/01 08:55:14;;;;;;;1.05;0.30;;;12.70;99.90;;;;;;6206952;23;20021;-82
2023/11/01 08:57:42;;;;;;;1.05;0.20;;;12.70;99.90;;;;;;6181699;23;20021;-84
2023/11/01 09:00:12;;;;;;;0.30;0.30;;;12.60;99.90;;;;;;6210245;23;20035;-82
2023/11/01 09:02:39;;;;;;;0.68;0.40;;;12.60;99.90;;;;;;6210920;23;20028;-80
2023/11/01 09:05:07;;;;;;;0.40;0.25;;;12.50;99.90;;;;;;6221893;23;20034;-79
2023/11/01 09:07:35;;;;;;;0.50;0.20;;;12.40;1.00;;;;;;6240020;23;20394;-85
2023/11/01 09:10:02;;;;;;;0.35;0.30;;;12.40;1.00;;;;;;6239088;23;20023;-81
2023/11/01 09:12:29;;;;;;;1.02;0.38;;;12.40;1.00;;;;;;6234886;23;20028;-82
2023/11/01 09:14:57;;;;;;;0.77;0.30;;;12.40;1.00;;;;;;6234639;23;20032;-79
2023/11/01 09:17:25;;;;;;;0.47;0.40;;;12.40;1.00;;;;;;6205641;23;20059;-81
2023/11/01 09:19:52;;;;;;;1.02;0.30;;;12.40;1.00;;;;;;6229647;23;20024;-80
2023/11/01 09:22:20;;;;;;;1.00;0.30;;;12.40;1.00;;;;;;6231570;22;20468;-82
2023/11/01 09:24:47;;;;;;;0.43;0.20;;;12.40;1.00;;;;;;6233745;23;20024;-84
2023/11/01 09:27:15;;;;;;;0.57;0.30;;;12.40;1.00;;;;;;6228465;23;20497;-82
2023/11/01 09:29:42;;;;;;;0.47;0.20;;;12.40;99.90;;;;;;6205364;23;20357;-80
2023/11/01 09:32:11;;;;;;;0.52;0.35;;;12.50;99.90;;;;;;6231232;23;20023;-81
2023/11/01 09:34:40;;;;;;;0.52;0.40;;;12.50;99.90;;;;;;6228179;22;20024;-79
2023/11/01 09:37:07;;;;;;;0.35;0.28;;;12.60;99.90;;;;;;6230724;22;20020;-80
2023/11/01 09:39:34;;;;;;;0.55;0.30;;;12.60;99.90;;;;;;6230887;22;20111;-80
2023/11/01 09:42:05;;;;;;;0.28;0.28;;;12.60;94.30;;;;;;6227918;23;20026;-79
2023/11/01 09:44:33;;;;;;;0.20;0.20;;;12.60;1.00;;;;;;6229659;22;20475;-82
2023/11/01 09:47:02;;;;;;;0.43;0.38;;;12.70;1.00;;;;;;6207830;23;20038;-79
2023/11/01 09:49:30;;;;;;;0.30;0.20;;;12.70;1.00;;;;;;6209384;23;20024;-80
2023/11/01 09:51:59;;;;;;;0.90;0.25;;;12.70;1.00;;;;;;6211404;23;20020;-81
2023/11/01 09:54:26;;;;;;;0.35;0.30;;;12.70;99.90;;;;;;6216115;23;20020;-79
2023/11/01 09:56:54;;;;;;;0.40;0.30;;;12.80;99.90;;;;;;6190221;23;20024;-80
2023/11/01 09:59:22;;;;;;;0.43;0.30;;;12.90;1.00;;;;;;6239533;23;20412;-81
2023/11/01 10:01:50;;;;;;;0.45;0.30;;;13.10;1.00;;;;;;6240029;23;20449;-81
2023/11/01 10:04:17;;;;;;;0.20;0.20;;;13.20;43.50;;;;;;6240011;22;20031;-79
2023/11/01 10:06:44;;;;;;;0.77;0.47;;;13.30;1.00;;;;;;6239771;23;20020;-80
2023/11/01 10:09:11;;;;;;;1.15;0.40;;;13.30;1.00;;;;;;6241797;23;20066;-80
2023/11/01 10:11:42;;;;;;;0.63;0.30;;;13.30;1.00;;;;;;6238853;23;20179;-81
2023/11/01 10:14:09;;;;;;;1.63;0.77;;;13.30;99.90;;;;;;6214269;23;20028;-80
2023/11/01 10:16:37;;;;;;;0.60;0.40;;;13.30;1.00;;;;;;6236249;23;20035;-82
2023/11/01 10:19:06;;;;;;;0.68;0.43;;;13.40;99.90;;;;;;6237508;22;20066;-82
2023/11/01 10:21:33;;;;;;;0.93;0.40;;;13.40;99.90;;;;;;6210640;23;20024;-81
2023/11/01 10:24:01;;;;;;;0.73;0.40;;;13.50;99.90;;;;;;6234659;23;20024;-81
2023/11/01 10:26:30;;;;;;;0.70;0.47;;;13.60;99.90;;;;;;6235630;23;20099;-80
2023/11/01 10:28:58;;;;;;;0.70;0.30;;;13.70;99.90;;;;;;6236701;22;20031;-81
2023/11/01 10:31:25;;;;;;;1.27;0.43;;;13.90;99.90;;;;;;6209800;23;20020;-81
2023/11/01 10:33:52;;;;;;;1.52;0.75;;;13.90;51.50;;;;;;6236067;23;20020;-81
2023/11/01 10:36:21;;;;;;;0.22;0.20;;;14.00;64.70;;;;;;6234892;23;20544;-80
2023/11/01 10:38:51;;;;;;;1.02;0.45;;;14.10;1.00;;;;;;6237283;23;20051;-81
2023/11/01 10:41:18;;;;;;;0.50;0.40;;;14.10;99.90;;;;;;6234319;23;20024;-79
2023/11/01 10:43:46;;;;;;;0.63;0.40;;;14.20;99.90;;;;;;6234201;23;20020;-82
2023/11/01 10:46:14;;;;;;;1.42;0.52;;;14.20;99.90;;;;;;6234976;23;20096;-81
2023/11/01 10:48:41;;;;;;;1.25;0.63;;;14.20;1.00;;;;;;6235300;23;20024;-80
2023/11/01 10:51:08;;;;;;;0.75;0.40;;;14.20;38.40;;;;;;6236292;23;20095;-81
2023/11/01 10:53:37;;;;;;;0.68;0.40;;;14.30;99.90;;;;;;6238249;23;20024;-80
2023/11/01 10:56:06;;;;;;;1.15;0.60;;;14.40;52.10;;;;;;6238115;23;20016;-81
2023/11/01 10:58:35;;;;;;;1.58;0.50;;;14.40;99.90;;;;;;6213417;23;20020;-83
2023/11/01 11:01:24;;;;;;;0.55;0.38;;;14.40;1.00;;;;;;6213546;23;20026;-81
2023/11/01 11:04:00;;;;;;;0.75;0.50;;;14.50;99.90;;;;;;6232409;22;20585;-81
2023/11/01 11:06:31;;;;;;;1.08;0.52;;;14.60;99.90;;;;;;6159872;23;20091;-82
2023/11/01 11:09:24;;;;;;;0.57;0.32;;;14.70;99.90;;;;;;6183737;23;20016;-81
2023/11/01 11:12:11;;;;;;;;;;;14.80;99.90;;;;;;6178026;23;20023;-82
2023/11/01 11:14:48;;;;;;;0.70;0.30;;;14.70;99.90;;;;;;6205196;23;20419;-80
2023/11/01 11:17:17;;;;;;;1.95;0.70;;;14.80;99.90;;;;;;6154799;23;20020;-80
2023/11/01 11:20:19;;;;;;;1.65;0.52;;;14.70;99.90;;;;;;6158725;23;20016;-82
2023/11/01 11:23:02;;;;;;;0.75;0.55;;;14.80;99.90;;;;;;6061471;23;20089;-80
2023/11/01 11:25:38;;;;;;;1.17;0.52;;;14.80;99.90;;;;;;6193531;23;20506;-82
2023/11/01 11:28:06;;;;;;;0.60;0.38;;;14.90;99.90;;;;;;6202261;23;20028;-80
2023/11/01 11:31:05;;;;;;;1.33;0.70;;;14.90;99.90;;;;;;6154493;23;20020;-81
2023/11/01 11:33:33;;;;;;;1.83;0.52;;;14.80;99.90;;;;;;6185094;23;20126;-80
2023/11/01 11:36:25;;;;;;;1.80;0.68;;;14.80;99.90;;;;;;6179738;23;20103;-81
2023/11/01 11:38:58;;;;;;;0.90;0.50;;;14.80;99.90;;;;;;6202848;23;20021;-80
2023/11/01 11:41:43;;;;;;;1.02;0.60;;;14.80;99.90;;;;;;6155707;23;20031;-81
2023/11/01 11:44:19;;;;;;;1.15;0.70;;;14.80;99.90;;;;;;6181926;23;20624;-79
2023/11/01 11:46:47;;;;;;;;;;;14.80;99.90;;;;;;6181933;23;20031;-81
2023/11/01 11:49:21;;;;;;;1.80;0.50;;;14.70;99.90;;;;;;6201542;23;19920;-80
2023/11/01 11:52:06;;;;;;;2.60;0.88;;;14.60;99.90;;;;;;6173301;23;20055;-79
2023/11/01 11:54:34;;;;;;;2.13;0.68;;;14.50;99.90;;;;;;6149793;23;20031;-80
2023/11/01 11:57:02;;;;;;;1.27;0.73;;;14.50;99.90;;;;;;6149145;23;20358;-80
2023/11/01 11:59:31;;;;;;;1.25;0.60;;;14.50;99.90;;;;;;6197428;23;20020;-81
2023/11/01 12:02:15;;;;;;;2.83;0.77;;;14.50;99.90;;;;;;6198463;23;20032;-81
2023/11/01 12:04:46;;;;;;;1.00;0.47;;;14.50;99.90;;;;;;6175044;23;20043;-81
2023/11/01 12:07:18;;;;;;;1.52;0.60;;;14.50;99.90;;;;;;6203440;23;20024;-80
2023/11/01 12:09:51;;;;;;;0.88;0.52;;;14.50;99.90;;;;;;6230894;22;20093;-81
2023/11/01 12:12:19;;;;;;;0.88;0.50;;;14.50;99.90;;;;;;6204044;23;20051;-78
2023/11/01 12:14:47;;;;;;;1.05;0.50;;;14.40;99.90;;;;;;6228481;23;20028;-79
2023/11/01 12:17:14;;;;;;;1.15;0.30;;;14.40;99.90;;;;;;6204232;23;20024;-78
2023/11/01 12:19:45;;;;;;;0.47;0.32;;;14.40;99.90;;;;;;6229434;23;20267;-78
2023/11/01 12:22:12;;;;;;;1.92;0.60;;;14.40;99.90;;;;;;6231380;23;20432;-78
2023/11/01 12:24:40;;;;;;;1.35;0.77;;;14.40;99.90;;;;;;6228536;23;20020;-78
2023/11/01 12:27:10;;;;;;;1.48;0.60;;;14.40;99.90;;;;;;6228928;23;20582;-78
2023/11/01 12:29:50;;;;;;;0.63;0.50;;;14.40;99.90;;;;;;6229638;23;20028;-79
2023/11/01 12:32:33;;;;;;;1.33;0.57;;;14.50;99.90;;;;;;6227577;23;20031;-80
2023/11/01 12:35:04;;;;;;;3.83;0.82;;;14.60;99.90;;;;;;6230351;22;20496;-80
2023/11/01 12:37:35;;;;;;;0.40;0.38;;;14.60;99.90;;;;;;6178044;23;20012;-80
2023/11/01 12:40:12;;;;;;;1.70;0.80;;;15.00;99.30;;;;;;6177301;23;20031;-80
2023/11/01 12:42:41;;;;;;;0.38;0.38;;;15.30;99.90;;;;;;6202876;23;20559;-80
2023/11/01 12:45:09;;;;;;;0.73;0.38;;;15.40;83.30;;;;;;6227206;23;20024;-80
2023/11/01 12:47:46;;;;;;;0.93;0.50;;;15.40;78.60;;;;;;6230932;23;20356;-80
2023/11/01 12:50:17;;;;;;;1.17;0.43;;;15.50;60.60;;;;;;6228611;23;20016;-79
2023/11/01 12:52:44;;;;;;;2.67;0.60;;;15.50;56.40;;;;;;6230319;23;20024;-79
2023/11/01 12:55:11;;;;;;;0.57;0.50;;;15.40;46.20;;;;;;6227767;23;20023;-79
2023/11/01 12:57:46;;;;;;;1.20;0.60;;;15.10;47.10;;;;;;6226162;23;20028;-80
2023/11/01 13:00:14;;;;;;;1.33;0.47;;;14.90;60.90;;;;;;6228588;23;20035;-81
2023/11/01 13:02:42;;;;;;;0.65;0.43;;;14.70;89.20;;;;;;6230221;22;20024;-81
2023/11/01 13:05:11;;;;;;;1.65;0.47;;;14.60;99.90;;;;;;6209017;22;20055;-82
2023/11/01 13:07:39;;;;;;;1.05;0.43;;;14.50;99.90;;;;;;6174152;23;20477;-81
2023/11/01 13:10:09;;;;;;;1.02;0.63;;;14.40;99.90;;;;;;6175242;23;20028;-82
2023/11/01 13:12:39;;;;;;;2.05;0.60;;;14.40;99.90;;;;;;6149790;23;20021;-82
2023/11/01 13:15:08;;;;;;;1.52;0.50;;;14.50;99.90;;;;;;6150216;23;20408;-82
2023/11/01 13:17:36;;;;;;;1.85;0.73;;;14.60;99.90;;;;;;6173783;23;20027;-83
2023/11/01 13:20:04;;;;;;;1.38;0.73;;;15.00;96.50;;;;;;6150823;23;20025;-82
2023/11/01 13:22:31;;;;;;;1.50;0.88;;;15.60;91.10;;;;;;6173874;23;20027;-81
2023/11/01 13:25:01;;;;;;;1.58;0.70;;;16.00;50.30;;;;;;6175186;23;20540;-82
2023/11/01 13:27:28;;;;;;;1.75;0.57;;;16.40;41.20;;;;;;6173026;23;20021;-82
2023/11/01 13:29:55;;;;;;;2.05;0.68;;;16.60;37.00;;;;;;6149387;23;20028;-81
2023/11/01 13:32:23;;;;;;;2.03;0.80;;;16.20;27.40;;;;;;6169989;23;20027;-79
2023/11/01 13:34:50;;;;;;;3.05;1.25;;;15.80;28.80;;;;;;6167799;23;20143;-82
2023/11/01 13:37:17;;;;;;;1.23;0.60;;;15.50;30.40;;;;;;6164736;23;20822;-81
2023/11/01 13:39:44;;;;;;;2.28;0.93;;;15.70;42.90;;;;;;6145779;23;20430;-82
2023/11/01 13:42:11;;;;;;;2.13;0.88;;;15.80;40.70;;;;;;6171363;23;20102;-79
2023/11/01 13:44:43;;;;;;;2.85;0.90;;;15.60;41.30;;;;;;6149849;23;20099;-81
2023/11/01 13:47:10;;;;;;;1.80;0.90;;;15.30;34.70;;;;;;6173360;23;20464;-80
2023/11/01 13:49:39;;;;;;;1.25;0.70;;;15.20;26.90;;;;;;6149120;23;20025;-80
2023/11/01 13:52:07;;;;;;;1.90;0.77;;;15.30;38.20;;;;;;6173863;23;20029;-80
2023/11/01 13:54:34;;;;;;;1.48;0.73;;;15.80;44.10;;;;;;6173627;23;20055;-81
2023/11/01 13:57:02;;;;;;;1.55;0.80;;;16.10;42.30;;;;;;6199293;23;20021;-80
2023/11/01 13:59:30;;;;;;;1.73;0.75;;;16.50;26.80;;;;;;6170281;23;20048;-81
2023/11/01 14:01:58;;;;;;;3.55;1.05;;;16.80;20.30;;;;;;6148624;23;20033;-80
2023/11/01 14:04:26;;;;;;;1.80;0.95;;;16.80;10.80;;;;;;6192403;23;20038;-81
2023/11/01 14:06:53;;;;;;;1.35;0.73;;;16.90;7.00;;;;;;6227546;23;20475;-82
2023/11/01 14:09:20;;;;;;;1.75;0.70;;;17.00;1.00;;;;;;6227388;23;20024;-80
2023/11/01 14:11:50;;;;;;;1.80;0.80;;;16.90;1.00;;;;;;6202847;23;20028;-81
2023/11/01 14:14:20;;;;;;;2.97;0.90;;;16.80;1.00;;;;;;6227617;23;20026;-80
2023/11/01 14:16:47;;;;;;;2.25;0.60;;;17.00;1.00;;;;;;6228290;23;20032;-81
2023/11/01 14:19:15;;;;;;;1.65;0.77;;;17.30;1.00;;;;;;6228411;23;20099;-80
2023/11/01 14:21:42;;;;;;;3.13;1.20;;;17.00;1.00;;;;;;6201925;23;20024;-82
2023/11/01 14:24:09;;;;;;;2.15;0.82;;;16.50;1.00;;;;;;6226052;23;20032;-82
2023/11/01 14:26:37;;;;;;;2.53;1.23;;;16.20;1.00;;;;;;6221115;23;20102;-80
2023/11/01 14:29:06;;;;;;;1.90;0.77;;;16.00;1.00;;;;;;6227985;23;20056;-80
2023/11/01 14:31:33;;;;;;;1.85;0.80;;;16.30;1.00;;;;;;6228848;23;20055;-80
2023/11/01 14:34:00;;;;;;;1.45;0.68;;;16.80;1.00;;;;;;6229207;23;20553;-80
2023/11/01 14:36:27;;;;;;;2.05;1.13;;;17.20;1.00;;;;;;6228711;23;20103;-80
2023/11/01 14:38:55;;;;;;;1.13;0.60;;;17.50;1.00;;;;;;6230341;23;20035;-81
2023/11/01 14:41:23;;;;;;;2.22;0.98;;;17.60;1.00;;;;;;6204954;23;20020;-80
2023/11/01 14:43:50;;;;;;;2.28;0.90;;;17.70;1.00;;;;;;6205073;23;20169;-82
2023/11/01 14:46:20;;;;;;;2.10;0.90;;;17.70;1.00;;;;;;6229090;23;20035;-79
2023/11/01 14:48:47;;;;;;;2.58;0.70;;;17.80;1.00;;;;;;6230356;23;20420;-80
2023/11/01 14:51:14;;;;;;;1.33;0.63;;;17.80;1.00;;;;;;6180807;23;20032;-80
2023/11/01 14:53:42;;;;;;;3.65;1.00;;;17.80;1.00;;;;;;6229273;23;20050;-81
2023/11/01 14:56:11;;;;;;;3.55;1.08;;;17.80;1.00;;;;;;6204187;23;20035;-82
2023/11/01 14:58:46;;;;;;;3.30;1.23;;;17.70;1.00;;;;;;6224651;23;20103;-79
2023/11/01 15:01:15;;;;;;;2.10;1.10;;;17.50;1.00;;;;;;6200283;23;20524;-82
2023/11/01 15:03:43;;;;;;;2.53;1.20;;;17.50;1.00;;;;;;6228055;22;20031;-81
2023/11/01 15:06:11;;;;;;;2.65;1.10;;;17.50;1.00;;;;;;6150775;23;20063;-80
2023/11/01 15:08:39;;;;;;;2.83;0.93;;;17.50;1.00;;;;;;6150248;23;20617;-80
2023/11/01 15:11:07;;;;;;;1.85;0.90;;;17.20;1.00;;;;;;6177445;23;20162;-80
2023/11/01 15:13:34;;;;;;;4.00;1.20;;;16.90;1.00;;;;;;6155337;23;20031;-80
2023/11/01 15:16:00;;;;;;;1.10;0.60;;;16.90;1.00;;;;;;6204908;23;20489;-78
2023/11/01 15:18:28;;;;;;;1.15;0.50;;;17.10;1.00;;;;;;6179970;23;20020;-80
2023/11/01 15:20:56;;;;;;;1.92;0.63;;;17.30;1.00;;;;;;6205204;23;20048;-80
2023/11/01 15:23:23;;;;;;;1.92;0.60;;;17.40;1.00;;;;;;6155042;23;20325;-81
2023/11/01 15:25:51;;;;;;;1.25;0.70;;;17.50;1.00;;;;;;6180640;23;20063;-79
2023/11/01 15:28:18;;;;;;;1.50;0.70;;;17.30;1.00;;;;;;6154345;23;20025;-79
2023/11/01 15:30:44;;;;;;;1.13;0.60;;;17.40;1.00;;;;;;6207015;23;20409;-79
2023/11/01 15:33:11;;;;;;;1.45;0.68;;;17.50;1.00;;;;;;6182663;23;20025;-80
2023/11/01 15:35:39;;;;;;;1.40;0.60;;;17.50;1.00;;;;;;6209226;23;20032;-80
2023/11/01 15:38:06;;;;;;;1.10;0.68;;;17.40;1.00;;;;;;6208717;23;20079;-79
2023/11/01 15:40:33;;;;;;;1.42;0.55;;;17.20;1.00;;;;;;6208804;23;20028;-79
2023/11/01 15:43:01;;;;;;;1.23;0.55;;;17.00;1.00;;;;;;6181647;23;20493;-78
2023/11/01 15:45:28;;;;;;;1.42;0.57;;;16.60;1.00;;;;;;6208466;23;20033;-79
2023/11/01 15:47:56;;;;;;;0.40;0.40;;;16.00;1.00;;;;;;6209107;23;20385;-81
2023/11/01 15:50:23;;;;;;;1.52;0.70;;;15.60;1.00;;;;;;6209432;23;20020;-81
2023/11/01 15:52:50;;;;;;;2.20;0.60;;;15.20;1.00;;;;;;6208352;23;20021;-79
2023/11/01 15:55:17;;;;;;;2.60;0.80;;;14.90;1.00;;;;;;6208949;23;20021;-79
2023/11/01 15:57:44;;;;;;;1.35;0.60;;;14.60;1.00;;;;;;6182177;23;20095;-78
2023/11/01 16:00:12;;;;;;;2.30;0.73;;;14.40;1.00;;;;;;6180311;23;20032;-79
2023/11/01 16:02:39;;;;;;;1.25;0.50;;;14.20;1.00;;;;;;6177947;23;20035;-79
2023/11/01 16:05:07;;;;;;;2.13;0.52;;;14.10;1.00;;;;;;6214810;23;20020;-80
2023/11/01 16:07:34;;;;;;;1.10;0.90;;;13.90;1.00;;;;;;6235376;23;20028;-80
2023/11/01 16:10:02;;;;;;;1.17;0.65;;;13.80;1.00;;;;;;6229123;23;20020;-79
2023/11/01 16:12:31;;;;;;;1.25;0.55;;;13.60;1.00;;;;;;6228276;23;20397;-81
2023/11/01 16:14:58;;;;;;;1.67;0.65;;;13.50;1.00;;;;;;6227602;23;20125;-79
2023/11/01 16:17:25;;;;;;;1.73;0.80;;;13.40;1.00;;;;;;6178275;23;20024;-81
2023/11/01 16:19:55;;;;;;;2.38;0.98;;;13.40;1.00;;;;;;6169782;23;20028;-80
2023/11/01 16:22:26;;;;;;;2.38;1.02;;;13.30;1.00;;;;;;6199777;23;20159;-81
2023/11/01 16:24:53;;;;;;;4.35;1.40;;;13.20;1.00;;;;;;6177875;23;20097;-83
2023/11/01 16:27:23;;;;;;;3.72;1.40;;;13.00;1.00;;;;;;6178461;23;20298;-81
2023/11/01 16:29:50;;;;;;;2.60;1.05;;;13.00;1.00;;;;;;6204162;23;20024;-82
2023/11/01 16:32:18;;;;;;;1.92;0.65;;;12.90;1.00;;;;;;6224521;23;20039;-79